Time;durP1;ratioP1;P1;durP2;ratioP2;P2;SDS_P1;SDS_P2;PMS_P1;PMS_P2;Temp;Humidity;BMP_temperature;BMP_pressure;BME280_temperature;BME280_humidity;BME280_pressure;Samples;Min_cycle;Max_cycle;Signal;HPM_P1;HPM_P2
2023/05/25 00:00:15;;;;;;;1999.90;999.90;;;12.50;99.90;;;;;;5086076;28;20461;-73
2023/05/25 00:02:43;;;;;;;1999.90;999.90;;;12.50;99.90;;;;;;5077964;28;20444;-73
2023/05/25 00:05:09;;;;;;;1999.90;999.90;;;12.60;99.90;;;;;;5091512;28;20434;-69
2023/05/25 00:07:36;;;;;;;1999.90;999.90;;;12.80;99.90;;;;;;5087940;28;20426;-73
2023/05/25 00:10:03;;;;;;;1999.90;999.90;;;12.80;99.90;;;;;;5080353;28;20563;-71
2023/05/25 00:12:30;;;;;;;1999.90;999.90;;;12.80;99.90;;;;;;5081880;28;20430;-73
2023/05/25 00:14:56;;;;;;;1999.90;999.90;;;12.90;99.90;;;;;;5083924;28;20437;-75
2023/05/25 00:17:24;;;;;;;1999.90;999.90;;;12.70;99.90;;;;;;5088599;28;20434;-72
2023/05/25 00:19:51;;;;;;;1999.90;999.90;;;12.70;99.90;;;;;;5087605;28;20432;-75
2023/05/25 00:22:19;;;;;;;1999.90;999.90;;;12.60;99.90;;;;;;5081175;28;20901;-75
2023/05/25 00:24:45;;;;;;;1999.90;999.90;;;12.60;99.90;;;;;;5078664;28;20860;-75
2023/05/25 00:27:12;;;;;;;1999.90;999.90;;;12.60;99.90;;;;;;5082944;28;20486;-73
2023/05/25 00:29:39;;;;;;;1999.90;999.90;;;12.50;99.90;;;;;;5085993;28;20923;-75
2023/05/25 00:32:06;;;;;;;1999.90;999.90;;;12.40;99.90;;;;;;5083839;28;20602;-75
2023/05/25 00:34:35;;;;;;;1999.90;999.90;;;12.40;99.90;;;;;;5091110;28;20834;-75
2023/05/25 00:37:01;;;;;;;1999.90;999.90;;;12.30;99.90;;;;;;5075003;28;20428;-75
2023/05/25 00:39:28;;;;;;;1999.90;999.90;;;12.20;99.90;;;;;;5087949;28;20495;-75
2023/05/25 00:41:56;;;;;;;1999.90;999.90;;;12.20;99.90;;;;;;5090677;28;20422;-71
2023/05/25 00:44:23;;;;;;;1999.90;999.90;;;12.20;99.90;;;;;;5086550;28;20441;-75
2023/05/25 00:46:51;;;;;;;1999.90;999.90;;;12.20;99.90;;;;;;5077365;28;20774;-75
2023/05/25 00:49:19;;;;;;;1999.90;999.90;;;12.30;99.90;;;;;;5086465;28;20422;-73
2023/05/25 00:51:48;;;;;;;1999.90;999.90;;;12.30;99.90;;;;;;5089371;28;20503;-75
2023/05/25 00:54:14;;;;;;;1999.90;999.90;;;12.30;99.90;;;;;;5088117;28;20911;-76
2023/05/25 00:56:44;;;;;;;1999.90;999.90;;;12.20;99.90;;;;;;5088418;28;20942;-75
2023/05/25 00:59:15;;;;;;;1999.90;999.90;;;12.10;99.90;;;;;;5088127;28;20437;-74
2023/05/25 01:01:43;;;;;;;1999.90;999.90;;;12.20;99.90;;;;;;5080851;28;20475;-75
2023/05/25 01:04:13;;;;;;;1999.90;999.90;;;12.10;99.90;;;;;;5079696;28;20465;-72
2023/05/25 01:06:44;;;;;;;1999.90;999.90;;;12.20;99.90;;;;;;5088031;28;20430;-75
2023/05/25 01:09:15;;;;;;;1999.90;999.90;;;12.30;99.90;;;;;;5086058;28;20431;-77
2023/05/25 01:11:44;;;;;;;1999.90;999.90;;;12.30;99.90;;;;;;5083771;28;20436;-75
2023/05/25 01:14:11;;;;;;;1999.90;999.90;;;12.30;99.90;;;;;;5075330;28;21006;-75
2023/05/25 01:16:38;;;;;;;1999.90;999.90;;;12.30;99.90;;;;;;5089676;28;20429;-75
2023/05/25 01:19:05;;;;;;;1999.90;999.90;;;12.20;99.90;;;;;;5087619;28;20475;-73
2023/05/25 01:21:40;;;;;;;1999.90;999.90;;;12.20;99.90;;;;;;5086473;28;20487;-73
2023/05/25 01:24:12;;;;;;;1999.90;999.90;;;12.30;99.90;;;;;;5088552;28;20429;-73
2023/05/25 01:26:46;;;;;;;1999.90;999.90;;;12.30;99.90;;;;;;5078146;28;20434;-73
2023/05/25 01:29:14;;;;;;;1999.90;999.90;;;12.30;99.90;;;;;;5072464;28;20974;-72
2023/05/25 01:31:41;;;;;;;1999.90;999.90;;;12.40;99.90;;;;;;5079860;28;20877;-73
2023/05/25 01:34:08;;;;;;;1999.90;999.90;;;12.20;99.90;;;;;;5079368;28;20419;-71
2023/05/25 01:36:36;;;;;;;1999.90;999.90;;;12.10;99.90;;;;;;5086508;28;20429;-73
2023/05/25 01:39:06;;;;;;;1999.90;999.90;;;12.10;99.90;;;;;;5085011;28;20430;-73
2023/05/25 01:41:32;;;;;;;1999.90;999.90;;;12.20;99.90;;;;;;5076959;28;20535;-70
2023/05/25 01:43:59;;;;;;;1999.90;999.90;;;12.10;99.90;;;;;;5075239;28;20429;-73
2023/05/25 01:46:34;;;;;;;1999.90;999.90;;;11.90;99.90;;;;;;5088414;28;20965;-73
2023/05/25 01:49:12;;;;;;;1999.90;999.90;;;11.90;99.90;;;;;;5084292;28;20435;-72
2023/05/25 01:51:51;;;;;;;1999.90;999.90;;;12.00;99.90;;;;;;5083063;28;20422;-73
2023/05/25 01:54:19;;;;;;;1999.90;999.90;;;12.00;99.90;;;;;;5085049;28;20453;-72
2023/05/25 01:56:48;;;;;;;1999.90;999.90;;;12.00;99.90;;;;;;5087269;28;20437;-73
2023/05/25 01:59:19;;;;;;;1999.90;999.90;;;12.10;99.90;;;;;;5081850;28;20915;-73
2023/05/25 02:01:47;;;;;;;1999.90;999.90;;;12.10;99.90;;;;;;5086350;28;20479;-73
2023/05/25 02:04:16;;;;;;;1999.90;999.90;;;12.10;99.90;;;;;;5082889;28;20427;-72
2023/05/25 02:06:48;;;;;;;1999.90;999.90;;;12.10;99.90;;;;;;5088649;28;20568;-73
2023/05/25 02:09:14;;;;;;;1999.90;999.90;;;12.00;99.90;;;;;;5089033;28;20430;-72
2023/05/25 02:11:41;;;;;;;1999.90;999.90;;;12.10;99.90;;;;;;5088629;28;20483;-72
2023/05/25 02:14:08;;;;;;;1999.90;999.90;;;12.10;99.90;;;;;;5080824;28;20505;-73
2023/05/25 02:16:35;;;;;;;1999.90;999.90;;;12.20;99.90;;;;;;5083100;28;20430;-72
2023/05/25 02:19:01;;;;;;;1999.90;999.90;;;12.30;99.90;;;;;;5084156;28;20483;-73
2023/05/25 02:21:28;;;;;;;1999.90;999.90;;;12.30;99.90;;;;;;5087229;28;20890;-72
2023/05/25 02:23:57;;;;;;;1999.90;999.90;;;12.20;99.90;;;;;;5077912;28;20430;-76
2023/05/25 02:26:23;;;;;;;1999.90;999.90;;;12.20;99.90;;;;;;5088362;28;20431;-75
2023/05/25 02:28:51;;;;;;;1999.90;999.90;;;12.10;99.90;;;;;;5083693;28;20433;-75
2023/05/25 02:31:18;;;;;;;1999.90;999.90;;;12.00;99.90;;;;;;5082202;28;20466;-75
2023/05/25 02:33:44;;;;;;;1999.90;999.90;;;12.00;99.90;;;;;;5082027;28;20796;-73
2023/05/25 02:36:11;;;;;;;1999.90;999.90;;;11.90;99.90;;;;;;5082027;28;20542;-75
2023/05/25 02:38:38;;;;;;;1999.90;999.90;;;11.80;99.90;;;;;;5086261;28;20545;-75
2023/05/25 02:41:05;;;;;;;1999.90;999.90;;;11.90;99.90;;;;;;5086160;28;20457;-75
2023/05/25 02:43:32;;;;;;;1999.90;999.90;;;11.90;99.90;;;;;;5082223;28;20433;-78
2023/05/25 02:45:59;;;;;;;1999.90;999.90;;;11.90;99.90;;;;;;5086800;28;20449;-75
2023/05/25 02:48:26;;;;;;;1999.90;999.90;;;11.90;99.90;;;;;;5079363;28;20582;-79
2023/05/25 02:50:52;;;;;;;1999.90;999.90;;;11.80;99.90;;;;;;5087546;28;20456;-76
2023/05/25 02:53:19;;;;;;;1999.90;999.90;;;11.80;99.90;;;;;;5087240;28;20426;-76
2023/05/25 02:55:45;;;;;;;1999.90;999.90;;;11.80;99.90;;;;;;5083664;28;20497;-72
2023/05/25 02:58:13;;;;;;;1999.90;999.90;;;11.80;99.90;;;;;;5081419;28;21006;-73
2023/05/25 03:00:41;;;;;;;1999.90;999.90;;;11.80;99.90;;;;;;5082081;28;20430;-75
2023/05/25 03:03:08;;;;;;;1999.90;999.90;;;11.80;99.90;;;;;;5073117;28;20432;-75
2023/05/25 03:05:34;;;;;;;1999.90;999.90;;;11.80;99.90;;;;;;5084173;28;20471;-75
2023/05/25 03:08:01;;;;;;;1999.90;999.90;;;11.70;99.90;;;;;;5082675;28;20458;-73
2023/05/25 03:10:28;;;;;;;1999.90;999.90;;;11.80;99.90;;;;;;5079851;28;20953;-73
2023/05/25 03:12:54;;;;;;;1999.90;999.90;;;11.90;99.90;;;;;;5080160;28;20421;-73
2023/05/25 03:15:22;;;;;;;1999.90;999.90;;;11.90;99.90;;;;;;5077840;28;20456;-73
2023/05/25 03:17:49;;;;;;;1999.90;999.90;;;11.80;99.90;;;;;;5082956;28;20475;-72
2023/05/25 03:20:16;;;;;;;1999.90;999.90;;;11.80;99.90;;;;;;5084570;28;20491;-73
2023/05/25 03:22:43;;;;;;;1999.90;999.90;;;11.80;99.90;;;;;;5081347;28;20796;-73
2023/05/25 03:25:11;;;;;;;1999.90;999.90;;;12.00;99.90;;;;;;5076038;28;20436;-75
2023/05/25 03:27:38;;;;;;;1999.90;999.90;;;12.00;99.90;;;;;;5073881;28;20428;-75
2023/05/25 03:30:06;;;;;;;1999.90;999.90;;;11.90;99.90;;;;;;5080256;28;20425;-70
2023/05/25 03:32:35;;;;;;;1999.90;999.90;;;11.80;99.90;;;;;;5086542;28;20425;-73
2023/05/25 03:35:01;;;;;;;1999.90;999.90;;;11.80;99.90;;;;;;5087824;28;20580;-73
2023/05/25 03:37:28;;;;;;;1999.90;999.90;;;11.80;99.90;;;;;;5087382;28;20426;-72
2023/05/25 03:39:54;;;;;;;1999.90;999.90;;;11.90;99.90;;;;;;5080309;28;20433;-73
2023/05/25 03:42:21;;;;;;;1999.90;999.90;;;12.00;99.90;;;;;;5078084;28;20912;-70
2023/05/25 03:44:47;;;;;;;1999.90;999.90;;;11.80;99.90;;;;;;5089306;28;20429;-72
2023/05/25 03:47:14;;;;;;;1999.90;999.90;;;11.90;99.90;;;;;;5089508;28;20471;-73
2023/05/25 03:49:42;;;;;;;1999.90;999.90;;;12.00;99.90;;;;;;5087945;28;20447;-72
2023/05/25 03:52:09;;;;;;;1999.90;999.90;;;12.00;99.90;;;;;;5078532;28;20838;-72
2023/05/25 03:54:35;;;;;;;1999.90;999.90;;;12.20;99.90;;;;;;5082650;28;20435;-72
2023/05/25 03:57:02;;;;;;;1999.90;999.90;;;12.20;99.90;;;;;;5090443;28;20430;-73
2023/05/25 03:59:29;;;;;;;1999.90;999.90;;;12.20;99.90;;;;;;5089631;28;20513;-75
2023/05/25 04:01:55;;;;;;;1999.90;999.90;;;12.00;99.90;;;;;;5089046;28;20911;-73
2023/05/25 04:04:22;;;;;;;1999.90;999.90;;;12.00;99.90;;;;;;5080261;28;21072;-69
2023/05/25 04:06:50;;;;;;;1999.90;999.90;;;11.90;99.90;;;;;;5078283;28;20431;-73
2023/05/25 04:09:17;;;;;;;1999.90;999.90;;;12.00;99.90;;;;;;5083840;28;20430;-72
2023/05/25 04:11:44;;;;;;;1999.90;999.90;;;12.00;99.90;;;;;;5089968;28;20426;-73
2023/05/25 04:14:11;;;;;;;1999.90;999.90;;;12.10;99.90;;;;;;5084568;28;20477;-72
2023/05/25 04:16:39;;;;;;;1999.90;999.90;;;12.20;99.90;;;;;;5090701;28;20456;-72
2023/05/25 04:19:06;;;;;;;1999.90;999.90;;;12.40;99.90;;;;;;5087206;28;20427;-72
2023/05/25 04:21:33;;;;;;;1999.90;999.90;;;12.30;99.90;;;;;;5074162;28;20496;-72
2023/05/25 04:24:01;;;;;;;1999.90;999.90;;;12.00;99.90;;;;;;5081377;28;20429;-70
2023/05/25 04:26:27;;;;;;;1999.90;999.90;;;12.00;99.90;;;;;;5089042;28;20439;-73
2023/05/25 04:28:54;;;;;;;1999.90;999.90;;;12.10;99.90;;;;;;5089633;28;20430;-75
2023/05/25 04:31:23;;;;;;;1999.90;999.90;;;12.20;99.90;;;;;;5084702;28;20432;-75
2023/05/25 04:33:50;;;;;;;1999.90;999.90;;;12.30;99.90;;;;;;5082904;28;20431;-74
2023/05/25 04:36:16;;;;;;;1999.90;999.90;;;12.10;99.90;;;;;;5083089;28;20456;-73
2023/05/25 04:38:47;;;;;;;1999.90;999.90;;;12.20;99.90;;;;;;5089056;28;20437;-73
2023/05/25 04:41:15;;;;;;;1999.90;999.90;;;12.10;99.90;;;;;;5084592;28;20433;-71
2023/05/25 04:43:44;;;;;;;1999.90;999.90;;;12.20;99.90;;;;;;5091382;28;20444;-75
2023/05/25 04:46:12;;;;;;;1999.90;999.90;;;12.00;99.90;;;;;;5082081;28;20506;-75
2023/05/25 04:48:39;;;;;;;1999.90;999.90;;;12.00;99.90;;;;;;5073809;28;20437;-75
2023/05/25 04:51:06;;;;;;;1999.90;999.90;;;12.00;99.90;;;;;;5088285;28;20439;-75
2023/05/25 04:53:34;;;;;;;1999.90;999.90;;;12.10;99.90;;;;;;5086883;28;20913;-73
2023/05/25 04:56:00;;;;;;;1999.90;999.90;;;12.10;99.90;;;;;;5085830;28;20945;-70
2023/05/25 04:58:29;;;;;;;1999.90;999.90;;;12.00;99.90;;;;;;5090324;28;20479;-72
2023/05/25 05:00:56;;;;;;;1999.90;999.90;;;12.00;99.90;;;;;;5075280;28;20427;-76
2023/05/25 05:03:22;;;;;;;1999.90;999.90;;;11.90;99.90;;;;;;5084838;28;20418;-72
2023/05/25 05:05:49;;;;;;;1999.90;999.90;;;12.00;99.90;;;;;;5089012;28;20433;-74
2023/05/25 05:08:16;;;;;;;1999.90;999.90;;;11.90;99.90;;;;;;5088041;28;20430;-74
2023/05/25 05:10:43;;;;;;;1999.90;999.90;;;11.90;99.90;;;;;;5085456;28;20431;-70
2023/05/25 05:13:10;;;;;;;1999.90;999.90;;;12.00;99.90;;;;;;5088796;28;20426;-74
2023/05/25 05:15:38;;;;;;;1999.90;999.90;;;12.00;99.90;;;;;;5090287;28;20426;-75
2023/05/25 05:18:07;;;;;;;1999.90;999.90;;;11.90;99.90;;;;;;5086231;28;20435;-72
2023/05/25 05:20:34;;;;;;;1999.90;999.90;;;12.00;99.90;;;;;;5087216;28;20445;-74
2023/05/25 05:23:00;;;;;;;1999.90;999.90;;;12.00;99.90;;;;;;5088419;28;20483;-74
2023/05/25 05:25:27;;;;;;;1999.90;999.90;;;12.00;99.90;;;;;;5083817;28;20508;-72
2023/05/25 05:27:53;;;;;;;1999.90;999.90;;;12.00;99.90;;;;;;5078905;28;20437;-70
2023/05/25 05:30:21;;;;;;;1999.90;999.90;;;12.10;99.90;;;;;;5084047;28;20831;-74
2023/05/25 05:32:49;;;;;;;1999.90;999.90;;;12.20;99.90;;;;;;5084950;28;20487;-73
2023/05/25 05:35:15;;;;;;;1999.90;999.90;;;12.30;99.90;;;;;;5080597;28;20830;-75
2023/05/25 05:37:43;;;;;;;1999.90;999.90;;;12.40;99.90;;;;;;5082370;28;20772;-75
2023/05/25 05:40:10;;;;;;;1999.90;999.90;;;12.50;99.90;;;;;;5070802;28;20502;-74
2023/05/25 05:42:37;;;;;;;1999.90;999.90;;;12.60;99.90;;;;;;5070925;28;20503;-74
2023/05/25 05:45:04;;;;;;;1999.90;999.90;;;13.20;99.90;;;;;;5071110;28;20416;-72
2023/05/25 05:47:31;;;;;;;1999.90;999.90;;;13.70;99.90;;;;;;5083054;28;20436;-75
2023/05/25 05:49:59;;;;;;;1999.90;999.90;;;14.30;99.90;;;;;;5082445;28;20915;-74
2023/05/25 05:52:25;;;;;;;1999.90;999.90;;;14.70;99.90;;;;;;5090926;28;20461;-74
2023/05/25 05:54:52;;;;;;;1999.90;999.90;;;15.20;99.90;;;;;;5089662;28;20506;-74
2023/05/25 05:57:19;;;;;;;1999.90;999.90;;;15.20;99.90;;;;;;5078965;28;20411;-74
2023/05/25 05:59:45;;;;;;;1999.90;999.90;;;15.30;99.90;;;;;;5070817;28;20461;-75
2023/05/25 06:02:12;;;;;;;1999.90;999.90;;;15.20;99.90;;;;;;5070824;28;20433;-73
2023/05/25 06:04:38;;;;;;;1999.90;999.90;;;15.10;99.90;;;;;;5070648;28;20890;-74
2023/05/25 06:07:06;;;;;;;1999.90;999.90;;;15.00;99.90;;;;;;5080083;28;20429;-74
2023/05/25 06:09:33;;;;;;;1999.90;999.90;;;15.10;99.90;;;;;;5082272;28;20400;-74
2023/05/25 06:12:00;;;;;;;1999.90;999.90;;;15.30;99.90;;;;;;5090979;28;20429;-75
2023/05/25 06:14:27;;;;;;;1999.90;999.90;;;15.60;99.90;;;;;;5091058;28;20425;-75
2023/05/25 06:16:53;;;;;;;1999.90;999.90;;;15.50;99.90;;;;;;5090643;28;20466;-74
2023/05/25 06:19:20;;;;;;;1999.90;999.90;;;15.50;99.90;;;;;;5090362;28;20414;-74
2023/05/25 06:21:46;;;;;;;1999.90;999.90;;;15.30;99.90;;;;;;5081424;28;20428;-75
2023/05/25 06:24:15;;;;;;;1999.90;999.90;;;15.20;99.90;;;;;;5079013;28;20469;-71
2023/05/25 06:26:42;;;;;;;1999.90;999.90;;;15.20;99.90;;;;;;5069956;28;20421;-74
2023/05/25 06:29:09;;;;;;;1999.90;999.90;;;15.50;99.90;;;;;;5070402;28;20415;-75
2023/05/25 06:31:35;;;;;;;1999.90;999.90;;;15.50;99.90;;;;;;5070392;28;20450;-73
2023/05/25 06:34:02;;;;;;;1999.90;999.90;;;15.50;99.90;;;;;;5070541;28;20442;-74
2023/05/25 06:36:29;;;;;;;1999.90;999.90;;;15.30;99.90;;;;;;5077317;28;20434;-74
2023/05/25 06:38:55;;;;;;;1999.90;999.90;;;15.10;99.90;;;;;;5081053;28;20459;-71
2023/05/25 06:41:23;;;;;;;1999.90;999.90;;;14.90;99.90;;;;;;5070134;28;20419;-75
2023/05/25 06:43:50;;;;;;;1999.90;999.90;;;15.10;99.90;;;;;;5070422;28;20438;-74
2023/05/25 06:46:17;;;;;;;1999.90;999.90;;;15.30;99.90;;;;;;5069708;28;20882;-71
2023/05/25 06:48:44;;;;;;;1999.90;999.90;;;15.40;99.90;;;;;;5071105;28;20563;-74
2023/05/25 06:51:11;;;;;;;1999.90;999.90;;;15.50;99.90;;;;;;5078608;28;20515;-74
2023/05/25 06:53:38;;;;;;;1999.90;999.90;;;15.70;99.90;;;;;;5069925;28;20434;-74
2023/05/25 06:56:05;;;;;;;1999.90;999.90;;;16.00;99.90;;;;;;5069368;28;20996;-74
2023/05/25 06:58:33;;;;;;;1999.90;999.90;;;16.20;99.90;;;;;;5070341;28;20415;-75
2023/05/25 07:01:00;;;;;;;1999.90;999.90;;;15.90;99.90;;;;;;5071641;28;20491;-74
2023/05/25 07:03:27;;;;;;;1999.90;999.90;;;16.00;99.90;;;;;;5077992;28;20510;-75
2023/05/25 07:05:53;;;;;;;1999.90;999.90;;;15.70;99.90;;;;;;5069807;28;20411;-74
2023/05/25 07:08:20;;;;;;;1999.90;999.90;;;15.70;99.90;;;;;;5070151;28;20462;-74
2023/05/25 07:10:47;;;;;;;1999.90;999.90;;;15.70;99.90;;;;;;5069666;28;20450;-74
2023/05/25 07:13:14;;;;;;;1999.90;999.90;;;15.50;99.90;;;;;;5069972;28;20423;-73
2023/05/25 07:15:42;;;;;;;1999.90;999.90;;;15.60;99.90;;;;;;5071712;28;20431;-73
2023/05/25 07:18:11;;;;;;;1999.90;999.90;;;15.50;99.90;;;;;;5080968;28;20419;-73
2023/05/25 07:20:40;;;;;;;1999.90;999.90;;;15.50;99.90;;;;;;5076019;28;20426;-75
2023/05/25 07:23:07;;;;;;;1999.90;999.90;;;15.50;99.90;;;;;;5081027;28;20430;-74
2023/05/25 07:25:34;;;;;;;1999.90;999.90;;;15.80;99.90;;;;;;5080425;28;20431;-72
2023/05/25 07:28:01;;;;;;;1999.90;999.90;;;15.90;99.90;;;;;;5086289;28;20433;-74
2023/05/25 07:30:28;;;;;;;1999.90;999.90;;;15.80;99.90;;;;;;5088343;28;20912;-73
2023/05/25 07:32:56;;;;;;;1999.90;999.90;;;16.00;99.90;;;;;;5086714;28;20482;-73
2023/05/25 07:35:23;;;;;;;1999.90;999.90;;;16.10;99.90;;;;;;5087922;28;20448;-73
2023/05/25 07:37:56;;;;;;;1999.90;999.90;;;16.10;99.90;;;;;;5082112;28;20466;-70
2023/05/25 07:40:23;;;;;;;1999.90;999.90;;;16.10;99.90;;;;;;5083471;28;20494;-74
2023/05/25 07:42:50;;;;;;;1999.90;999.90;;;16.10;99.90;;;;;;5093244;28;20418;-74
2023/05/25 07:45:17;;;;;;;1999.90;999.90;;;16.10;99.90;;;;;;5079356;28;20475;-74
2023/05/25 07:47:43;;;;;;;1999.90;999.90;;;16.30;99.90;;;;;;5084923;28;20483;-74
2023/05/25 07:50:11;;;;;;;1999.90;999.90;;;16.20;99.90;;;;;;5090467;28;20418;-74
2023/05/25 07:52:38;;;;;;;1999.90;999.90;;;16.30;99.90;;;;;;5093140;28;20426;-74
2023/05/25 07:55:06;;;;;;;1999.90;999.90;;;16.60;99.90;;;;;;5090763;28;20430;-74
2023/05/25 07:57:32;;;;;;;1999.90;999.90;;;16.50;99.90;;;;;;5086169;28;20512;-74
2023/05/25 07:59:59;;;;;;;1999.90;999.90;;;16.60;99.90;;;;;;5075753;28;20420;-74
2023/05/25 08:02:26;;;;;;;1999.90;999.90;;;16.90;99.90;;;;;;5072959;28;20445;-74
2023/05/25 08:04:52;;;;;;;1999.90;999.90;;;17.00;99.90;;;;;;5079461;28;20442;-73
2023/05/25 08:07:20;;;;;;;1999.90;999.90;;;17.10;99.90;;;;;;5086791;28;20499;-74
2023/05/25 08:09:47;;;;;;;1999.90;999.90;;;16.80;99.90;;;;;;5083205;28;20479;-74
2023/05/25 08:12:14;;;;;;;1999.90;999.90;;;16.70;99.90;;;;;;5082548;28;20421;-75
2023/05/25 08:14:40;;;;;;;1999.90;999.90;;;16.50;99.90;;;;;;5085591;28;20457;-75
2023/05/25 08:17:07;;;;;;;1999.90;999.90;;;16.70;99.90;;;;;;5082400;28;20417;-74
2023/05/25 08:19:34;;;;;;;1999.90;999.90;;;16.70;99.90;;;;;;5072701;28;20403;-74
2023/05/25 08:22:00;;;;;;;1999.90;999.90;;;16.70;99.90;;;;;;5084267;28;20451;-72
2023/05/25 08:24:28;;;;;;;1999.90;999.90;;;16.50;99.90;;;;;;5084093;28;20438;-74
2023/05/25 08:26:55;;;;;;;1999.90;999.90;;;16.30;99.90;;;;;;5089236;28;20487;-74
2023/05/25 08:29:21;;;;;;;1999.90;999.90;;;16.10;99.90;;;;;;5073795;28;20755;-73
2023/05/25 08:31:49;;;;;;;1999.90;999.90;;;16.20;99.90;;;;;;5075227;28;20469;-74
2023/05/25 08:34:16;;;;;;;1999.90;999.90;;;16.50;99.90;;;;;;5074583;28;20435;-74
2023/05/25 08:36:43;;;;;;;1999.90;999.90;;;16.70;99.90;;;;;;5076619;28;20465;-74
2023/05/25 08:39:10;;;;;;;1999.90;999.90;;;16.90;99.90;;;;;;5072002;28;20443;-74
2023/05/25 08:41:42;;;;;;;1999.90;999.90;;;17.00;99.90;;;;;;5084199;28;20786;-74
2023/05/25 08:44:09;;;;;;;1999.90;999.90;;;17.00;99.90;;;;;;5090736;28;20475;-74
2023/05/25 08:46:36;;;;;;;1999.90;999.90;;;17.10;99.90;;;;;;5089593;28;20820;-73
2023/05/25 08:49:09;;;;;;;1999.90;999.90;;;16.80;99.90;;;;;;5088563;28;20972;-72
2023/05/25 08:51:37;;;;;;;1999.90;999.90;;;16.90;99.90;;;;;;5081648;28;20435;-74
2023/05/25 08:54:08;;;;;;;1999.90;999.90;;;16.70;99.90;;;;;;5083939;28;20509;-72
2023/05/25 08:56:41;;;;;;;1999.90;999.90;;;16.60;99.90;;;;;;5091951;28;20401;-74
2023/05/25 08:59:17;;;;;;;1999.90;999.90;;;16.70;99.90;;;;;;5089714;28;20430;-74
2023/05/25 09:01:47;;;;;;;1999.90;999.90;;;16.60;99.90;;;;;;5083726;28;20414;-71
2023/05/25 09:04:16;;;;;;;1999.90;999.90;;;16.60;99.90;;;;;;5088392;28;20933;-74
2023/05/25 09:06:44;;;;;;;1999.90;999.90;;;16.60;99.90;;;;;;5082332;28;20511;-74
2023/05/25 09:09:11;;;;;;;1999.90;999.90;;;16.40;99.90;;;;;;5082848;28;20410;-73
2023/05/25 09:11:39;;;;;;;1999.90;999.90;;;16.50;99.90;;;;;;5092279;28;20783;-73
2023/05/25 09:14:07;;;;;;;1999.90;999.90;;;16.60;99.90;;;;;;5091802;28;20429;-73
2023/05/25 09:16:36;;;;;;;1999.90;999.90;;;16.70;99.90;;;;;;5085404;28;20432;-73
2023/05/25 09:19:03;;;;;;;1999.90;999.90;;;16.80;99.90;;;;;;5080070;28;20415;-75
2023/05/25 09:21:30;;;;;;;1999.90;999.90;;;16.60;99.90;;;;;;5071513;28;20411;-73
2023/05/25 09:23:57;;;;;;;1999.90;999.90;;;16.70;99.90;;;;;;5071768;28;20411;-72
2023/05/25 09:26:25;;;;;;;1999.90;999.90;;;16.90;99.90;;;;;;5077271;28;20481;-73
2023/05/25 09:28:53;;;;;;;1999.90;999.90;;;16.90;99.90;;;;;;5088060;28;20444;-71
2023/05/25 09:31:23;;;;;;;1999.90;999.90;;;17.10;99.90;;;;;;5087256;28;20548;-75
2023/05/25 09:33:54;;;;;;;1999.90;999.90;;;17.20;99.90;;;;;;5080020;28;20873;-75
2023/05/25 09:36:21;;;;;;;1999.90;999.90;;;17.00;99.90;;;;;;5088323;28;20816;-76
2023/05/25 09:38:48;;;;;;;1999.90;999.90;;;16.80;99.90;;;;;;5084926;28;20437;-72
2023/05/25 09:41:15;;;;;;;1999.90;999.90;;;17.00;99.90;;;;;;5084335;28;20523;-72
2023/05/25 09:43:42;;;;;;;1999.90;999.90;;;17.30;99.90;;;;;;5084065;28;20884;-71
2023/05/25 09:46:10;;;;;;;1999.90;999.90;;;17.70;99.90;;;;;;5084180;28;20483;-74
2023/05/25 09:48:37;;;;;;;1999.90;999.90;;;18.00;99.90;;;;;;5086816;28;20434;-75
2023/05/25 09:51:06;;;;;;;1999.90;999.90;;;18.00;99.90;;;;;;5081954;28;20789;-71
2023/05/25 09:53:33;;;;;;;1999.90;999.90;;;17.90;99.90;;;;;;5081862;28;20550;-75
2023/05/25 09:56:01;;;;;;;1999.90;999.90;;;17.90;99.90;;;;;;5081117;28;20463;-75
2023/05/25 09:58:27;;;;;;;1999.90;999.90;;;18.00;99.90;;;;;;5070800;28;20419;-75
2023/05/25 10:00:54;;;;;;;1999.90;999.90;;;17.90;99.90;;;;;;5070742;28;20411;-75
2023/05/25 10:03:22;;;;;;;1999.90;999.90;;;17.70;99.90;;;;;;5074329;28;20430;-71
2023/05/25 10:05:49;;;;;;;1999.90;999.90;;;17.60;99.90;;;;;;5089758;28;20837;-71
2023/05/25 10:08:20;;;;;;;1999.90;999.90;;;17.90;99.90;;;;;;5072799;28;20476;-72
2023/05/25 10:10:48;;;;;;;1999.90;999.90;;;17.80;99.90;;;;;;5070741;28;20416;-77
2023/05/25 10:13:18;;;;;;;1999.90;999.90;;;17.90;99.90;;;;;;5070419;28;20423;-75
2023/05/25 10:15:47;;;;;;;1999.90;999.90;;;18.20;99.90;;;;;;5072683;28;21142;-75
2023/05/25 10:18:17;;;;;;;1999.90;999.90;;;18.50;99.90;;;;;;5079520;28;21384;-72
2023/05/25 10:20:48;;;;;;;1999.90;999.90;;;18.60;99.90;;;;;;5070081;28;20951;-74
2023/05/25 10:23:20;;;;;;;1999.90;999.90;;;18.40;99.90;;;;;;5070632;28;20408;-75
2023/05/25 10:25:49;;;;;;;1999.90;999.90;;;18.20;99.90;;;;;;5070305;28;20407;-75
2023/05/25 10:28:22;;;;;;;1999.90;999.90;;;18.00;99.90;;;;;;5051196;22;20452;-75
2023/05/25 10:30:50;;;;;;;1999.90;999.90;;;17.80;99.90;;;;;;4961939;28;20497;-75
2023/05/25 10:33:18;;;;;;;1999.90;999.90;;;18.00;99.90;;;;;;4969178;28;20767;-75
2023/05/25 10:35:46;;;;;;;1999.90;999.90;;;18.10;99.90;;;;;;4968947;28;20420;-73
2023/05/25 10:38:13;;;;;;;1999.90;999.90;;;18.30;99.90;;;;;;4969339;28;20420;-73
2023/05/25 10:40:40;;;;;;;1999.90;999.90;;;18.40;99.90;;;;;;4955959;28;20450;-73
2023/05/25 10:43:07;;;;;;;1999.90;999.90;;;18.40;99.90;;;;;;4968535;28;20474;-73
2023/05/25 10:45:35;;;;;;;1999.90;999.90;;;18.30;99.90;;;;;;4968766;28;20424;-73
2023/05/25 10:48:01;;;;;;;1999.90;999.90;;;18.20;99.90;;;;;;4968584;28;20434;-74
2023/05/25 10:50:28;;;;;;;1999.90;999.90;;;18.30;99.90;;;;;;4968345;28;20958;-73
2023/05/25 10:53:00;;;;;;;1999.90;999.90;;;18.40;99.90;;;;;;4957825;28;20931;-72
2023/05/25 10:55:30;;;;;;;1999.90;999.90;;;18.70;99.90;;;;;;4968372;28;20810;-70
2023/05/25 10:58:10;;;;;;;1999.90;999.90;;;18.60;99.90;;;;;;4968090;28;20456;-72
2023/05/25 11:00:37;;;;;;;1999.90;999.90;;;18.30;99.90;;;;;;4968552;28;20450;-75
2023/05/25 11:03:04;;;;;;;1999.90;999.90;;;18.10;99.90;;;;;;4965357;28;20523;-74
2023/05/25 11:05:37;;;;;;;1999.90;999.90;;;17.90;99.90;;;;;;4949630;28;20423;-75
2023/05/25 11:08:06;;;;;;;1999.90;999.90;;;18.00;99.90;;;;;;4948794;28;20462;-75
2023/05/25 11:10:54;;;;;;;1999.90;999.90;;;18.20;99.90;;;;;;4950226;28;20525;-75
2023/05/25 11:13:33;;;;;;;1999.90;999.90;;;18.30;99.90;;;;;;4960399;28;20491;-72
2023/05/25 11:16:16;;;;;;;1999.90;999.90;;;18.50;99.90;;;;;;4968466;28;20427;-75
2023/05/25 11:18:45;;;;;;;1999.90;999.90;;;18.50;99.90;;;;;;4968628;28;20456;-78
2023/05/25 11:21:13;;;;;;;1999.90;999.90;;;18.60;99.90;;;;;;4968791;28;20428;-74
2023/05/25 11:23:53;;;;;;;1999.90;999.90;;;18.80;99.90;;;;;;4957052;28;20445;-71
2023/05/25 11:26:23;;;;;;;1999.90;999.90;;;19.20;99.90;;;;;;4966791;28;20420;-74
2023/05/25 11:28:52;;;;;;;1999.90;999.90;;;19.40;99.90;;;;;;4968463;28;20895;-71
2023/05/25 11:31:28;;;;;;;1999.90;999.90;;;19.40;99.90;;;;;;4968953;28;20424;-72
2023/05/25 11:33:57;;;;;;;1999.90;999.90;;;19.30;99.90;;;;;;4962789;28;20887;-73
2023/05/25 11:36:24;;;;;;;1999.90;999.90;;;19.30;99.90;;;;;;4959112;28;20426;-72
2023/05/25 11:38:53;;;;;;;1999.90;999.90;;;19.50;99.90;;;;;;4968114;28;20425;-72
2023/05/25 11:41:20;;;;;;;1999.90;999.90;;;19.30;99.90;;;;;;4967944;28;20420;-72
2023/05/25 11:43:48;;;;;;;1999.90;999.90;;;19.20;99.90;;;;;;4968391;28;20421;-75
2023/05/25 11:46:17;;;;;;;1999.90;999.90;;;19.30;99.90;;;;;;4960309;28;20438;-74
2023/05/25 11:48:45;;;;;;;1999.90;999.90;;;19.20;99.90;;;;;;4960298;28;20432;-73
2023/05/25 11:51:12;;;;;;;1999.90;999.90;;;18.80;99.90;;;;;;4954558;28;20462;-75
2023/05/25 11:53:43;;;;;;;1999.90;999.90;;;18.50;99.90;;;;;;4948506;28;20538;-75
2023/05/25 11:56:12;;;;;;;1999.90;999.90;;;18.00;99.90;;;;;;4950533;28;20438;-72
2023/05/25 11:58:39;;;;;;;1999.90;999.90;;;18.00;99.90;;;;;;4954857;28;20436;-75
2023/05/25 12:01:17;;;;;;;1999.90;999.90;;;18.00;99.90;;;;;;4951872;28;20446;-76